Time;durP1;ratioP1;P1;durP2;ratioP2;P2;SDS_P1;SDS_P2;PMS_P1;PMS_P2;Temp;Humidity;BMP_temperature;BMP_pressure;BME280_temperature;BME280_humidity;BME280_pressure;Samples;Min_cycle;Max_cycle;Signal;HPM_P1;HPM_P2
2022/08/01 00:00:21;;;;;;;15.85;10.48;;;;;;;18.68;99.94;101441.81;4983337;28;20089;-82
2022/08/01 00:02:46;;;;;;;17.27;10.45;;;;;;;18.73;100.00;101434.28;4986942;28;20030;-81
2022/08/01 00:05:12;;;;;;;14.25;11.07;;;;;;;18.75;99.32;101437.72;4995658;28;20037;-81
2022/08/01 00:07:38;;;;;;;14.10;10.02;;;;;;;18.82;98.87;101440.81;4979903;28;20033;-80
2022/08/01 00:10:06;;;;;;;16.27;10.93;;;;;;;18.86;98.30;101439.59;4984659;28;20040;-82
2022/08/01 00:12:31;;;;;;;13.77;10.85;;;;;;;18.88;98.08;101441.19;4977200;28;20030;-81
2022/08/01 00:14:57;;;;;;;14.48;11.18;;;;;;;18.87;97.49;101435.94;4980963;28;20033;-81
2022/08/01 00:17:22;;;;;;;16.60;11.55;;;;;;;18.82;96.79;101436.28;4981450;28;20098;-82
2022/08/01 00:19:47;;;;;;;14.45;10.57;;;;;;;18.87;96.95;101438.63;4983329;28;20031;-81
2022/08/01 00:22:13;;;;;;;14.77;10.90;;;;;;;18.89;97.63;101445.63;4990229;28;20046;-82
2022/08/01 00:24:38;;;;;;;21.52;12.00;;;;;;;18.88;97.15;101449.28;4984104;28;20614;-82
2022/08/01 00:27:03;;;;;;;17.42;12.43;;;;;;;18.91;97.96;101442.81;4986978;28;20037;-82
2022/08/01 00:29:28;;;;;;;16.60;12.32;;;;;;;18.89;97.79;101445.63;4976668;28;20213;-82
2022/08/01 00:31:54;;;;;;;16.55;12.02;;;;;;;18.88;96.87;101441.19;4994039;28;20041;-80
2022/08/01 00:34:19;;;;;;;21.00;12.68;;;;;;;18.84;96.28;101441.53;4988074;28;20045;-80
2022/08/01 00:36:44;;;;;;;16.95;12.13;;;;;;;18.86;96.62;101445.84;5003206;28;20451;-80
2022/08/01 00:39:10;;;;;;;17.17;12.23;;;;;;;18.90;96.65;101454.59;5003938;28;20031;-81
2022/08/01 00:41:35;;;;;;;16.27;12.30;;;;;;;18.82;96.84;101433.59;5004126;28;20045;-81
2022/08/01 00:44:05;;;;;;;15.85;12.95;;;;;;;18.91;96.66;101445.50;4987520;28;20543;-81
2022/08/01 00:46:31;;;;;;;17.15;12.35;;;;;;;18.91;96.71;101451.75;4977504;28;20042;-81
2022/08/01 00:48:57;;;;;;;17.85;12.85;;;;;;;18.96;97.31;101451.41;4978683;28;20793;-81
2022/08/01 00:51:23;;;;;;;19.45;13.02;;;;;;;18.92;96.47;101448.06;4979573;28;20479;-81
2022/08/01 00:53:50;;;;;;;23.27;14.07;;;;;;;18.95;96.18;101459.63;4986545;28;20483;-81
2022/08/01 00:56:16;;;;;;;20.42;13.93;;;;;;;18.88;96.60;101446.59;4976003;28;20031;-80
2022/08/01 00:58:42;;;;;;;22.10;14.40;;;;;;;18.89;96.87;101451.03;4983297;28;20042;-81
2022/08/01 01:01:07;;;;;;;19.73;14.38;;;;;;;18.91;97.21;101449.06;4989330;28;20060;-81
2022/08/01 01:03:33;;;;;;;21.27;13.23;;;;;;;18.89;96.44;101453.72;4977368;28;20524;-81
2022/08/01 01:06:02;;;;;;;21.73;13.90;;;;;;;18.88;96.85;101454.69;4974957;28;20235;-81
2022/08/01 01:08:38;;;;;;;23.17;14.50;;;;;;;18.86;97.15;101456.66;4988345;28;20499;-82
2022/08/01 01:11:12;;;;;;;24.77;14.35;;;;;;;18.89;97.46;101455.53;4981480;28;20030;-80
2022/08/01 01:13:37;;;;;;;;;;;;;;;18.97;95.66;101455.81;4972682;28;20050;-81
2022/08/01 01:16:08;;;;;;;21.67;13.95;;;;;;;18.91;97.23;101449.06;4975527;28;19983;-81
2022/08/01 01:18:46;;;;;;;22.92;14.85;;;;;;;18.91;96.55;101449.06;4994955;28;20362;-81
2022/08/01 01:21:17;;;;;;;21.98;15.15;;;;;;;18.98;96.60;101456.66;4984552;28;20133;-81
2022/08/01 01:24:07;;;;;;;24.17;15.30;;;;;;;18.98;97.05;101451.28;4992481;28;20034;-81
2022/08/01 01:27:16;;;;;;;22.50;15.40;;;;;;;18.93;96.79;101457.03;4987126;28;20034;-81
2022/08/01 01:29:48;;;;;;;20.95;15.52;;;;;;;18.92;97.54;101456.16;4984378;28;20690;-81
2022/08/01 01:32:19;;;;;;;25.30;16.60;;;;;;;18.89;97.79;101448.34;4973799;28;20033;-81
2022/08/01 01:34:49;;;;;;;26.92;16.75;;;;;;;18.87;98.13;101441.31;4984724;28;20034;-81
2022/08/01 01:37:18;;;;;;;26.73;18.05;;;;;;;18.84;98.46;101453.19;4999289;28;20081;-80
2022/08/01 01:39:46;;;;;;;28.63;16.58;;;;;;;18.85;97.67;101446.84;4975634;28;20068;-81
2022/08/01 01:42:13;;;;;;;27.73;17.80;;;;;;;18.87;97.85;101450.28;4986573;28;20054;-81
2022/08/01 01:44:39;;;;;;;24.90;17.35;;;;;;;18.88;98.99;101451.97;4986163;28;20018;-81
2022/08/01 01:47:05;;;;;;;24.58;17.05;;;;;;;18.88;99.04;101459.22;4975399;28;20121;-81
2022/08/01 01:49:32;;;;;;;24.13;17.30;;;;;;;18.79;98.05;101450.00;4985798;28;20034;-80
2022/08/01 01:52:00;;;;;;;22.33;17.10;;;;;;;18.84;98.95;101458.59;4983146;28;20033;-81
2022/08/01 01:54:32;;;;;;;24.63;16.65;;;;;;;18.80;98.49;101456.25;4977528;28;20118;-80
2022/08/01 01:57:00;;;;;;;23.00;15.90;;;;;;;18.80;97.83;101442.75;4982843;28;20352;-81
2022/08/01 01:59:29;;;;;;;23.35;16.17;;;;;;;18.81;96.94;101448.06;4977406;28;20407;-81
2022/08/01 02:01:58;;;;;;;18.80;14.63;;;;;;;18.83;96.75;101445.22;4984041;28;20072;-81
2022/08/01 02:04:25;;;;;;;20.10;14.57;;;;;;;18.78;96.10;101445.59;4985251;28;20025;-80
2022/08/01 02:06:52;;;;;;;19.38;14.55;;;;;;;18.75;96.27;101448.50;4979214;28;20058;-81
2022/08/01 02:09:20;;;;;;;22.52;13.98;;;;;;;18.74;96.00;101444.09;4984067;28;20030;-80
2022/08/01 02:11:47;;;;;;;21.20;13.57;;;;;;;18.72;96.17;101446.03;4969537;28;20037;-81
2022/08/01 02:14:15;;;;;;;22.98;14.52;;;;;;;18.73;96.18;101444.19;4974893;28;20030;-81
2022/08/01 02:16:44;;;;;;;20.80;14.18;;;;;;;18.75;96.80;101448.50;4977595;28;20041;-81
2022/08/01 02:19:10;;;;;;;19.23;13.95;;;;;;;18.76;96.36;101447.50;4977883;28;20502;-81
2022/08/01 02:21:44;;;;;;;19.50;13.80;;;;;;;18.76;96.40;101452.06;4976509;28;20110;-80
2022/08/01 02:24:12;;;;;;;;;;;;;;;18.84;95.01;101450.50;4983202;28;20042;-81
2022/08/01 02:26:41;;;;;;;19.85;13.30;;;;;;;18.73;96.24;101442.38;4983601;28;19914;-81
2022/08/01 02:29:10;;;;;;;18.35;12.45;;;;;;;18.73;96.21;101446.88;4984454;28;20027;-81
2022/08/01 02:31:40;;;;;;;20.02;13.13;;;;;;;18.73;97.23;101436.97;4976935;28;20132;-81
2022/08/01 02:34:09;;;;;;;19.42;13.77;;;;;;;18.74;95.91;101443.22;4980572;28;20034;-81
2022/08/01 02:36:37;;;;;;;17.73;13.02;;;;;;;18.78;96.20;101442.03;4977100;28;20147;-81
2022/08/01 02:39:08;;;;;;;20.73;14.07;;;;;;;18.77;95.99;101448.38;4986538;28;20022;-80
2022/08/01 02:41:38;;;;;;;19.20;13.77;;;;;;;18.75;96.35;101443.09;4994002;28;20106;-80
2022/08/01 02:44:06;;;;;;;19.33;14.25;;;;;;;18.71;96.39;101444.31;4992343;28;20034;-80
2022/08/01 02:46:48;;;;;;;22.90;14.45;;;;;;;18.67;96.14;101438.25;4992148;28;20030;-81
2022/08/01 02:49:16;;;;;;;20.73;14.50;;;;;;;18.72;96.45;101451.41;4986496;28;20399;-81
2022/08/01 02:51:44;;;;;;;23.15;14.73;;;;;;;18.73;96.90;101442.38;4988019;28;20075;-82
2022/08/01 02:54:10;;;;;;;21.20;14.25;;;;;;;18.72;96.71;101437.94;4989701;28;20092;-81
2022/08/01 02:56:37;;;;;;;22.85;15.40;;;;;;;18.70;96.52;101439.06;4993333;28;20031;-81
2022/08/01 02:59:07;;;;;;;20.75;14.90;;;;;;;18.68;97.09;101449.91;4977576;28;20026;-80
2022/08/01 03:01:35;;;;;;;20.35;15.10;;;;;;;18.66;97.36;101439.25;4986544;28;20050;-80
2022/08/01 03:04:01;;;;;;;23.33;15.38;;;;;;;18.72;97.74;101451.41;4989912;28;20404;-80
2022/08/01 03:06:28;;;;;;;23.40;14.60;;;;;;;18.71;97.10;101449.72;4984337;28;20033;-80
2022/08/01 03:08:55;;;;;;;22.08;14.85;;;;;;;18.70;97.07;101449.84;4990807;28;20015;-80
2022/08/01 03:11:23;;;;;;;19.80;14.30;;;;;;;18.70;96.88;101445.31;5000822;28;20130;-79
2022/08/01 03:13:51;;;;;;;20.05;14.20;;;;;;;18.70;96.75;101447.13;4991669;28;20113;-80
2022/08/01 03:16:18;;;;;;;19.48;14.32;;;;;;;18.69;97.26;101457.03;4992500;28;20061;-80
2022/08/01 03:18:45;;;;;;;22.65;15.75;;;;;;;18.66;97.19;101450.03;4989465;28;20031;-79
2022/08/01 03:21:13;;;;;;;20.67;14.15;;;;;;;18.69;97.14;101450.78;4985523;28;20113;-80
2022/08/01 03:23:41;;;;;;;24.02;15.23;;;;;;;18.67;97.37;101453.56;4988139;28;20173;-79
2022/08/01 03:26:07;;;;;;;21.20;15.57;;;;;;;18.71;97.59;101455.09;4988734;28;20383;-80
2022/08/01 03:28:33;;;;;;;24.40;15.35;;;;;;;18.69;97.09;101450.78;4989224;28;20034;-81
2022/08/01 03:30:59;;;;;;;25.80;16.05;;;;;;;18.71;97.54;101460.50;4996445;28;20036;-82
2022/08/01 03:33:26;;;;;;;22.10;16.05;;;;;;;18.69;96.84;101467.81;4993202;28;20031;-81
2022/08/01 03:35:54;;;;;;;23.02;15.60;;;;;;;18.66;96.87;101460.81;4985278;28;20062;-80
2022/08/01 03:38:26;;;;;;;25.05;16.48;;;;;;;18.60;97.71;101455.91;4992118;28;20160;-81
2022/08/01 03:41:08;;;;;;;26.15;16.48;;;;;;;18.63;97.43;101462.88;4987648;28;20038;-80
2022/08/01 03:43:41;;;;;;;24.55;15.73;;;;;;;18.63;97.93;101458.34;4973679;28;20046;-81
2022/08/01 03:46:11;;;;;;;27.58;16.83;;;;;;;18.64;97.95;101468.16;4978834;28;20116;-81
2022/08/01 03:48:40;;;;;;;25.17;17.90;;;;;;;18.60;97.74;101458.59;4970921;28;20030;-80
2022/08/01 03:51:07;;;;;;;24.65;17.33;;;;;;;18.58;97.72;101448.88;4977389;28;20045;-80
2022/08/01 03:53:34;;;;;;;25.35;17.13;;;;;;;18.62;98.40;101462.00;4978755;28;20061;-81
2022/08/01 03:56:02;;;;;;;26.27;17.05;;;;;;;18.56;97.82;101458.91;4987463;28;20030;-81
2022/08/01 03:58:29;;;;;;;25.92;17.05;;;;;;;18.61;98.22;101452.22;4979809;28;20377;-81
2022/08/01 04:00:55;;;;;;;28.02;17.63;;;;;;;18.63;97.30;101457.47;4977137;28;20039;-81
2022/08/01 04:03:21;;;;;;;27.38;17.55;;;;;;;18.62;97.32;101461.16;4988694;28;20025;-81
2022/08/01 04:05:46;;;;;;;26.75;18.10;;;;;;;18.60;97.31;101463.09;4997980;28;20053;-81
2022/08/01 04:08:11;;;;;;;26.45;16.83;;;;;;;18.57;97.24;101464.19;4984590;28;20031;-80
2022/08/01 04:10:37;;;;;;;26.08;16.88;;;;;;;18.56;96.89;101467.88;4979561;28;20022;-81
2022/08/01 04:13:03;;;;;;;28.45;17.38;;;;;;;18.51;97.01;101463.78;5014372;28;20030;-82
2022/08/01 04:15:28;;;;;;;24.00;16.52;;;;;;;18.54;96.87;101463.56;5011900;28;20066;-80
2022/08/01 04:17:53;;;;;;;24.15;16.88;;;;;;;18.54;97.82;101459.03;4994414;28;20034;-80
2022/08/01 04:20:20;;;;;;;24.80;16.60;;;;;;;18.55;97.09;101465.28;5005761;28;20034;-80
2022/08/01 04:22:45;;;;;;;25.23;16.77;;;;;;;18.55;97.48;101467.97;5003167;28;20030;-80
2022/08/01 04:25:42;;;;;;;29.27;18.15;;;;;;;18.58;96.80;101471.31;4996791;28;20050;-80
2022/08/01 04:28:16;;;;;;;25.77;17.35;;;;;;;18.59;97.14;101481.09;4981416;28;20076;-81
2022/08/01 04:30:44;;;;;;;23.60;15.90;;;;;;;18.58;96.83;101470.44;4982307;28;20049;-80
2022/08/01 04:33:12;;;;;;;26.85;15.77;;;;;;;18.61;97.02;101478.31;4989995;28;20535;-80
2022/08/01 04:35:41;;;;;;;22.85;16.00;;;;;;;18.65;97.18;101471.72;4978738;28;20042;-80
2022/08/01 04:38:08;;;;;;;26.02;16.73;;;;;;;18.61;96.91;101478.31;4979061;28;20120;-80
2022/08/01 04:40:35;;;;;;;25.48;15.88;;;;;;;18.56;96.87;101472.38;4982534;28;20027;-81
2022/08/01 04:43:01;;;;;;;26.52;16.65;;;;;;;18.62;96.81;101482.72;4985622;28;20058;-80
2022/08/01 04:45:28;;;;;;;25.02;15.93;;;;;;;18.63;97.22;101484.44;4972924;28;20449;-80
2022/08/01 04:47:54;;;;;;;24.55;15.88;;;;;;;18.69;97.45;101494.78;4976600;28;20061;-80
2022/08/01 04:50:21;;;;;;;25.65;15.75;;;;;;;18.71;96.26;101494.69;4979677;28;20073;-80
2022/08/01 04:52:47;;;;;;;22.48;14.52;;;;;;;18.69;96.31;101494.78;4979219;28;20034;-80
2022/08/01 04:55:13;;;;;;;20.30;13.55;;;;;;;18.71;95.07;101498.25;4974081;28;20093;-80
2022/08/01 04:57:43;;;;;;;21.33;13.95;;;;;;;18.70;95.04;101501.94;4976442;28;20428;-80
2022/08/01 05:00:10;;;;;;;24.20;14.05;;;;;;;18.74;95.10;101500.72;4979080;28;20062;-79
2022/08/01 05:02:35;;;;;;;20.27;13.55;;;;;;;18.74;94.56;101499.88;4982379;28;20031;-80
2022/08/01 05:05:01;;;;;;;20.48;13.32;;;;;;;18.76;95.11;101503.28;4989153;28;20542;-80
2022/08/01 05:07:26;;;;;;;16.63;11.55;;;;;;;18.76;93.21;101512.25;4977445;28;20270;-80
2022/08/01 05:09:51;;;;;;;15.85;12.05;;;;;;;18.73;93.40;101507.09;4981856;28;20117;-80
2022/08/01 05:12:17;;;;;;;17.75;12.25;;;;;;;18.66;93.72;101500.41;4970815;28;20550;-78
2022/08/01 05:14:43;;;;;;;18.80;12.02;;;;;;;18.74;93.35;101506.13;4973707;28;20489;-80
2022/08/01 05:17:09;;;;;;;20.10;11.52;;;;;;;18.74;94.11;101510.66;4984434;28;20045;-80
2022/08/01 05:19:36;;;;;;;19.10;11.77;;;;;;;18.80;93.43;101515.56;4980734;28;20026;-81
2022/08/01 05:22:04;;;;;;;19.45;11.50;;;;;;;18.81;93.04;101520.88;4982899;28;20066;-80
2022/08/01 05:24:31;;;;;;;17.95;11.40;;;;;;;18.85;92.23;101521.47;4974660;28;20391;-79
2022/08/01 05:26:57;;;;;;;17.35;10.88;;;;;;;18.91;91.64;101516.50;4982907;28;20038;-80
2022/08/01 05:29:23;;;;;;;17.63;11.60;;;;;;;18.96;91.46;101524.22;4977031;28;20054;-81
2022/08/01 05:31:48;;;;;;;18.55;12.10;;;;;;;19.03;91.14;101525.50;4972007;28;20062;-80
2022/08/01 05:34:14;;;;;;;17.38;11.73;;;;;;;19.08;90.71;101526.00;4972743;28;20034;-79
2022/08/01 05:36:39;;;;;;;17.30;12.68;;;;;;;19.11;90.45;101527.63;4979781;28;20031;-80
2022/08/01 05:39:05;;;;;;;15.27;12.07;;;;;;;19.08;90.27;101517.06;4972335;28;20027;-79
2022/08/01 05:41:30;;;;;;;18.17;11.93;;;;;;;19.15;89.92;101534.50;4979167;28;20044;-80
2022/08/01 05:43:55;;;;;;;19.15;12.20;;;;;;;19.12;89.85;101518.53;4982169;28;20903;-79
2022/08/01 05:46:21;;;;;;;18.65;12.43;;;;;;;19.10;90.05;101524.06;4982352;28;20486;-80
2022/08/01 05:48:46;;;;;;;16.85;11.88;;;;;;;19.20;89.72;101521.53;4979112;28;20403;-79
2022/08/01 05:51:12;;;;;;;16.42;10.48;;;;;;;19.26;87.83;101525.56;4978126;28;20034;-79
2022/08/01 05:53:40;;;;;;;16.67;10.68;;;;;;;19.33;88.00;101516.03;4986339;28;20035;-80
2022/08/01 05:56:05;;;;;;;15.32;10.07;;;;;;;19.48;87.89;101514.88;4971333;28;20053;-77
2022/08/01 05:58:31;;;;;;;15.98;10.52;;;;;;;19.57;86.64;101516.84;4978011;28;20488;-80
2022/08/01 06:00:57;;;;;;;12.23;9.75;;;;;;;19.63;86.42;101521.78;4983661;28;20042;-80
2022/08/01 06:03:23;;;;;;;15.45;10.25;;;;;;;19.69;86.63;101523.16;4975064;28;20077;-81
2022/08/01 06:05:48;;;;;;;13.57;9.98;;;;;;;19.72;86.31;101522.91;4975405;28;20030;-80
2022/08/01 06:08:13;;;;;;;15.68;9.90;;;;;;;19.72;86.85;101519.34;4983582;28;20404;-81
2022/08/01 06:10:38;;;;;;;14.45;10.32;;;;;;;19.80;85.82;101520.44;4985982;28;20041;-80
2022/08/01 06:13:04;;;;;;;14.38;9.82;;;;;;;19.87;85.56;101527.09;4984599;28;20538;-79
2022/08/01 06:15:30;;;;;;;16.00;10.02;;;;;;;19.90;84.92;101528.72;4970719;28;20050;-80
2022/08/01 06:17:55;;;;;;;12.82;8.65;;;;;;;20.05;85.26;101513.97;4972417;28;20030;-80
2022/08/01 06:20:21;;;;;;;10.75;7.32;;;;;;;20.12;84.42;101512.50;4974488;28;20038;-80
2022/08/01 06:22:46;;;;;;;12.93;8.48;;;;;;;20.22;83.84;101518.00;4978613;28;20022;-80
2022/08/01 06:25:11;;;;;;;11.13;7.43;;;;;;;20.24;82.57;101518.75;4980254;28;20029;-79
2022/08/01 06:27:37;;;;;;;11.02;6.97;;;;;;;20.23;83.08;101518.84;4971653;28;20033;-80
2022/08/01 06:30:04;;;;;;;9.70;5.70;;;;;;;20.29;82.25;101527.34;4980163;28;20027;-79
2022/08/01 06:32:30;;;;;;;7.90;5.47;;;;;;;20.37;82.44;101515.91;4969751;28;20042;-80
2022/08/01 06:34:56;;;;;;;6.93;4.68;;;;;;;20.31;81.73;101524.50;4976433;28;20312;-81
2022/08/01 06:37:22;;;;;;;7.40;5.15;;;;;;;20.21;83.00;101510.03;4980002;28;20034;-81
2022/08/01 06:39:49;;;;;;;6.22;4.68;;;;;;;20.05;81.53;101529.31;4978462;28;20096;-81
2022/08/01 06:42:15;;;;;;;6.43;4.60;;;;;;;19.95;82.72;101533.75;4980246;28;20427;-81
2022/08/01 06:44:40;;;;;;;6.25;4.60;;;;;;;20.03;82.54;101534.00;4968426;28;20068;-80
2022/08/01 06:47:06;;;;;;;9.73;7.05;;;;;;;20.21;81.08;101537.91;4973847;28;20027;-81
2022/08/01 06:49:31;;;;;;;6.32;4.75;;;;;;;20.30;80.82;101529.06;4974613;28;20039;-81
2022/08/01 06:51:56;;;;;;;8.68;6.15;;;;;;;20.29;80.86;101537.28;4974196;28;20038;-81
2022/08/01 06:54:22;;;;;;;6.28;5.43;;;;;;;20.33;80.83;101541.47;4969884;28;20109;-80
2022/08/01 06:56:47;;;;;;;6.57;5.03;;;;;;;20.52;80.95;101544.41;4977606;28;20029;-80
2022/08/01 06:59:12;;;;;;;5.88;4.88;;;;;;;20.54;79.75;101553.28;4983649;28;20034;-81
2022/08/01 07:01:38;;;;;;;6.45;4.82;;;;;;;20.54;80.23;101544.31;4982845;28;20755;-80
2022/08/01 07:04:05;;;;;;;5.35;4.25;;;;;;;20.60;79.44;101551.91;4983900;28;20046;-80
2022/08/01 07:06:30;;;;;;;7.53;4.65;;;;;;;20.73;79.06;101547.19;4974926;28;20026;-81
2022/08/01 07:08:55;;;;;;;7.05;4.90;;;;;;;20.81;77.96;101551.97;4973090;28;20363;-80
2022/08/01 07:11:22;;;;;;;6.75;4.88;;;;;;;20.87;78.69;101554.19;4982758;28;20025;-81
2022/08/01 07:13:48;;;;;;;5.30;4.75;;;;;;;20.74;76.77;101542.69;4972297;28;20106;-79
2022/08/01 07:16:15;;;;;;;4.05;3.40;;;;;;;20.76;77.72;101546.94;4984865;28;20448;-80
2022/08/01 07:18:41;;;;;;;5.80;4.20;;;;;;;20.87;77.05;101543.38;4972434;28;20038;-79
2022/08/01 07:21:07;;;;;;;7.53;5.88;;;;;;;21.07;76.67;101545.28;4986450;28;20395;-80
2022/08/01 07:23:33;;;;;;;23.10;17.25;;;;;;;21.11;75.23;101548.59;4985132;28;20034;-79
2022/08/01 07:25:58;;;;;;;8.18;6.55;;;;;;;21.09;75.62;101554.09;4983277;28;20025;-79
2022/08/01 07:28:24;;;;;;;14.82;10.88;;;;;;;21.19;75.21;101565.00;4988782;28;20603;-80
2022/08/01 07:30:49;;;;;;;5.22;3.47;;;;;;;21.31;73.65;101558.56;4977356;28;20137;-80
2022/08/01 07:33:14;;;;;;;4.45;3.33;;;;;;;21.53;73.59;101559.50;4982029;28;20046;-79
2022/08/01 07:35:40;;;;;;;5.28;3.35;;;;;;;21.54;72.03;101561.19;4980343;28;20412;-79
2022/08/01 07:38:07;;;;;;;3.75;3.33;;;;;;;21.56;71.54;101556.50;4985161;28;20046;-80
2022/08/01 07:40:32;;;;;;;4.45;3.40;;;;;;;21.70;71.06;101563.47;4987499;28;20125;-79
2022/08/01 07:42:57;;;;;;;4.53;3.22;;;;;;;22.03;71.14;101554.19;4987165;28;20551;-79
2022/08/01 07:45:23;;;;;;;11.30;8.73;;;;;;;22.19;70.82;101565.44;4984108;28;20596;-80
2022/08/01 07:47:49;;;;;;;5.43;3.47;;;;;;;22.21;69.27;101566.19;4989504;28;20026;-81
2022/08/01 07:50:17;;;;;;;3.53;2.30;;;;;;;22.29;68.57;101566.38;4979016;28;20037;-81
2022/08/01 07:52:43;;;;;;;3.05;2.28;;;;;;;22.25;68.72;101574.91;4986129;28;20840;-79
2022/08/01 07:55:10;;;;;;;3.65;2.28;;;;;;;22.18;70.08;101579.16;4979917;28;20615;-81
2022/08/01 07:57:35;;;;;;;2.53;2.00;;;;;;;22.47;69.12;101571.13;4987481;28;20041;-79
2022/08/01 08:00:03;;;;;;;3.88;2.15;;;;;;;23.15;67.17;101566.72;5005280;28;20051;-80
2022/08/01 08:02:28;;;;;;;3.97;2.40;;;;;;;23.95;63.54;101567.38;5000443;28;20038;-80
2022/08/01 08:04:54;;;;;;;2.83;2.47;;;;;;;23.96;61.73;101564.53;4994678;28;20029;-80
2022/08/01 08:07:19;;;;;;;3.58;2.47;;;;;;;24.07;62.56;101569.75;4989126;28;20038;-80
2022/08/01 08:09:45;;;;;;;4.68;3.47;;;;;;;24.21;62.68;101576.59;4988152;28;20457;-81
2022/08/01 08:12:10;;;;;;;2.13;1.30;;;;;;;24.23;60.17;101579.16;4989645;28;20033;-81
2022/08/01 08:14:36;;;;;;;1.90;1.20;;;;;;;23.95;59.67;101584.53;4982357;28;20085;-80
2022/08/01 08:17:01;;;;;;;1.88;0.95;;;;;;;23.79;60.66;101585.16;4990368;28;20446;-80
2022/08/01 08:19:26;;;;;;;0.82;0.82;;;;;;;23.83;59.37;101583.03;4997936;28;20030;-81
2022/08/01 08:21:52;;;;;;;0.80;0.80;;;;;;;23.89;58.83;101587.00;5000873;28;20018;-80
2022/08/01 08:24:20;;;;;;;2.08;1.00;;;;;;;23.96;59.24;101590.84;4999526;28;20030;-80
2022/08/01 08:26:54;;;;;;;1.45;0.80;;;;;;;23.51;60.09;101592.31;4993744;28;20038;-79
2022/08/01 08:29:20;;;;;;;19.63;14.75;;;;;;;23.51;61.85;101594.19;4985719;28;20069;-79
2022/08/01 08:31:46;;;;;;;1.70;1.60;;;;;;;24.60;59.71;101582.75;4987373;28;20037;-78
2022/08/01 08:34:12;;;;;;;2.63;1.60;;;;;;;25.83;55.00;101582.13;4981469;28;20030;-78
2022/08/01 08:36:37;;;;;;;1.70;1.50;;;;;;;26.99;52.84;101587.09;4983225;28;20034;-78
2022/08/01 08:39:03;;;;;;;1.52;1.42;;;;;;;28.15;49.99;101589.72;4984713;28;20045;-80
2022/08/01 08:41:33;;;;;;;2.50;1.55;;;;;;;28.72;47.00;101592.28;4985279;28;20026;-79
2022/08/01 08:44:03;;;;;;;2.20;1.75;;;;;;;28.70;46.09;101583.38;4983730;28;20267;-80
2022/08/01 08:46:32;;;;;;;2.03;1.80;;;;;;;29.38;45.69;101582.59;4984601;28;20038;-80
2022/08/01 08:48:59;;;;;;;4.78;2.80;;;;;;;30.01;43.60;101584.13;4982843;28;20023;-80
2022/08/01 08:51:27;;;;;;;2.88;2.22;;;;;;;30.37;41.33;101575.16;4980463;28;20030;-79
2022/08/01 08:53:55;;;;;;;4.43;1.60;;;;;;;30.49;41.17;101586.50;4984368;28;20022;-79
2022/08/01 08:56:21;;;;;;;1.50;1.40;;;;;;;30.55;40.40;101579.38;4981151;28;20378;-79
2022/08/01 08:58:47;;;;;;;1.80;1.60;;;;;;;30.78;39.39;101577.41;4983139;28;20026;-81
2022/08/01 09:01:12;;;;;;;3.00;1.60;;;;;;;30.59;42.07;101581.56;4985873;28;20077;-80
2022/08/01 09:03:39;;;;;;;1.75;1.50;;;;;;;30.94;39.74;101584.56;4984772;28;20530;-80
2022/08/01 09:06:05;;;;;;;1.92;1.60;;;;;;;31.87;39.43;101588.25;4983496;28;20026;-80
2022/08/01 09:08:30;;;;;;;2.22;1.50;;;;;;;31.41;38.76;101586.75;4981062;28;20100;-80
2022/08/01 09:10:56;;;;;;;1.98;1.60;;;;;;;31.42;38.33;101585.72;4985716;28;20621;-80
2022/08/01 09:13:21;;;;;;;22.70;17.30;;;;;;;30.49;39.78;101589.25;4981918;28;20037;-80
2022/08/01 09:15:54;;;;;;;3.05;2.30;;;;;;;30.69;39.84;101595.84;4983398;28;20100;-80
2022/08/01 09:18:34;;;;;;;2.20;1.60;;;;;;;31.70;39.21;101591.25;4981175;28;20034;-80
2022/08/01 09:21:06;;;;;;;2.03;1.50;;;;;;;32.75;36.82;101589.41;4981915;28;20192;-80
2022/08/01 09:23:42;;;;;;;2.47;1.70;;;;;;;33.74;35.48;101594.28;4979783;28;21291;-80
2022/08/01 09:26:09;;;;;;;2.53;1.95;;;;;;;34.72;33.18;101599.00;4983221;28;20041;-80
2022/08/01 09:28:34;;;;;;;2.33;1.50;;;;;;;34.17;34.43;101604.88;4975699;28;20027;-80
2022/08/01 09:31:07;;;;;;;3.45;2.53;;;;;;;32.30;36.94;101605.47;4984428;28;20037;-80
2022/08/01 09:33:50;;;;;;;2.30;2.08;;;;;;;30.38;40.67;101604.31;4983674;28;20037;-79
2022/08/01 09:36:16;;;;;;;1.73;1.50;;;;;;;28.90;42.52;101597.47;4974084;28;20065;-80
2022/08/01 09:38:41;;;;;;;1.80;1.30;;;;;;;28.96;44.80;101600.38;4983165;28;20034;-80
2022/08/01 09:41:07;;;;;;;1.75;1.10;;;;;;;30.94;37.44;101601.06;4975477;28;20565;-80
2022/08/01 09:43:33;;;;;;;1.90;0.88;;;;;;;32.77;33.60;101598.28;4980995;28;20026;-80
2022/08/01 09:46:04;;;;;;;0.82;0.80;;;;;;;34.03;31.64;101595.78;4979449;28;20170;-80
2022/08/01 09:48:29;;;;;;;4.20;3.75;;;;;;;35.39;29.15;101597.56;4981630;28;20030;-80
2022/08/01 09:50:55;;;;;;;1.77;1.58;;;;;;;36.26;28.66;101609.59;4983986;28;20022;-80
2022/08/01 09:53:21;;;;;;;1.35;1.10;;;;;;;37.18;27.45;101594.81;4980708;28;20024;-80
2022/08/01 09:55:46;;;;;;;1.83;0.90;;;;;;;37.60;26.97;101599.28;4977935;28;20030;-80
2022/08/01 09:58:12;;;;;;;1.80;0.77;;;;;;;36.62;28.41;101602.38;4981013;28;20488;-80
2022/08/01 10:00:39;;;;;;;2.63;0.98;;;;;;;35.91;27.98;101601.00;4983526;28;20051;-79
2022/08/01 10:03:23;;;;;;;0.98;0.60;;;;;;;36.13;29.69;101606.97;4981807;28;20026;-80
2022/08/01 10:05:51;;;;;;;0.77;0.65;;;;;;;36.46;25.42;101608.56;4978469;28;20218;-80
2022/08/01 10:08:17;;;;;;;1.77;0.63;;;;;;;36.96;26.94;101609.22;4979510;28;20030;-80
2022/08/01 10:11:07;;;;;;;1.17;0.95;;;;;;;37.91;27.10;101604.75;4976098;28;20262;-80
2022/08/01 10:13:32;;;;;;;1.50;1.17;;;;;;;37.96;24.50;101607.66;4977921;28;20058;-79
2022/08/01 10:16:00;;;;;;;1.13;0.80;;;;;;;36.78;26.22;101610.06;4978517;28;20058;-79
2022/08/01 10:18:26;;;;;;;1.63;0.82;;;;;;;34.40;29.31;101604.38;4978450;28;20066;-80
2022/08/01 10:20:52;;;;;;;1.88;0.80;;;;;;;32.63;32.78;101613.94;4985191;28;20034;-79
2022/08/01 10:23:19;;;;;;;1.00;0.77;;;;;;;31.79;34.13;101597.47;4971564;28;20018;-79
2022/08/01 10:25:45;;;;;;;0.80;0.77;;;;;;;33.86;30.27;101606.41;4982267;28;20034;-79
2022/08/01 10:28:16;;;;;;;1.40;0.95;;;;;;;35.61;28.67;101601.66;4982931;28;20539;-80
2022/08/01 10:30:43;;;;;;;3.17;2.10;;;;;;;34.79;30.30;101613.66;4984143;28;20058;-80
2022/08/01 10:33:09;;;;;;;1.67;1.10;;;;;;;33.19;31.48;101608.22;4976955;28;20512;-79
2022/08/01 10:35:35;;;;;;;1.85;0.95;;;;;;;31.46;35.10;101610.94;4983018;28;20026;-79
2022/08/01 10:38:01;;;;;;;2.05;0.80;;;;;;;29.82;38.20;101614.00;4977927;28;20499;-80
2022/08/01 10:40:27;;;;;;;1.55;0.90;;;;;;;28.60;40.74;101612.88;4981768;28;20042;-79
2022/08/01 10:42:53;;;;;;;3.63;3.13;;;;;;;27.95;43.48;101611.13;4986868;28;20034;-79
2022/08/01 10:45:19;;;;;;;3.53;2.78;;;;;;;28.11;42.99;101611.09;4981364;28;20026;-79
2022/08/01 10:48:15;;;;;;;1.10;1.00;;;;;;;28.10;42.33;101614.03;4987484;28;20085;-79
2022/08/01 10:50:45;;;;;;;1.67;0.80;;;;;;;27.95;43.41;101613.84;4987936;28;20030;-80
2022/08/01 10:53:14;;;;;;;1.02;0.90;;;;;;;28.59;42.37;101602.91;4985698;28;20029;-80
2022/08/01 10:55:51;;;;;;;2.38;1.00;;;;;;;31.47;37.07;101588.72;4988934;28;20487;-80
2022/08/01 10:58:26;;;;;;;1.30;1.20;;;;;;;32.15;35.94;101607.50;4976278;28;20118;-80
2022/08/01 11:01:21;;;;;;;1.65;1.55;;;;;;;30.52;38.68;101603.47;4987605;28;20443;-79
2022/08/01 11:04:04;;;;;;;2.00;1.65;;;;;;;28.97;41.31;101613.06;4985775;28;20278;-80
2022/08/01 11:06:32;;;;;;;;;;;;;;;28.56;42.00;101608.78;4978542;28;20090;-80
2022/08/01 11:08:59;;;;;;;3.25;2.70;;;;;;;27.92;44.26;101611.47;4982987;28;20007;-79
2022/08/01 11:11:24;;;;;;;3.38;2.40;;;;;;;28.56;43.77;101617.84;4985960;28;20027;-79
2022/08/01 11:14:01;;;;;;;2.00;1.80;;;;;;;28.79;42.77;101621.50;4985697;28;20030;-80
2022/08/01 11:16:28;;;;;;;2.10;1.90;;;;;;;30.40;40.14;101631.59;4971550;28;20042;-80
2022/08/01 11:18:53;;;;;;;2.40;1.73;;;;;;;29.97;40.18;101617.59;4982757;28;20109;-79